Hovedside
METAR-TAF:

METAR-TAF

Lufthavner :

Guilin, Kina

Guilin Liangjiang internasjonale lufthavn

breddegrad: 25-20N, lengdegrad: 110-18E, høyde over havet: 166 m

Gjeldene værobservasjon

Denne rapporten ble laget for 33 minutter siden, klokken 18:00 UTC
Vind 6 kt fra Øst-nordøst, skiftende mellom Nord-nordøst og Øst
Temperatur 18°C
Luftfuktighet 77%
Trykk 1015 hPa
Sikt: 5000 m
Brutte skyer i en høyde av 4300 ft
Overskyet i en høyde av 6600 ft
dis

METAR: ZGKL 241800Z 06003MPS 020V100 5000 BR BKN043 OVC066 18/14 Q1015 NOSIG

Tid: 02:33 (18:33 UTC)

Varsel

Denne rapporten ble laget for 3 timer og 20 minutter siden, klokken 15:13 UTC
Varsel gyldig fra 24. klokken 18 UTC til 25. klokken 18 UTC
Vind 8 kt fra Nordøst
Sikt 10 km eller mer
Spredte skyer i en høyde av 3000 ft
Brutte skyer i en høyde av 5000 ft

TAF: ZGKL 241513Z 2418/2518 05004MPS 9999 SCT030 BKN050 TX26/2508Z TN15/2423Z

Værobservasjoner og værvarsel for over 4000 flyplasser (METAR- og TAF-rapporter).

Tilgjengelige stasjoner er representert av de røde og gule prikkene på kartet.

Hold musepekeren over prikken for å se navnet på stasjonen.

Klikk så for å se værobservasjoner og -varsler.

For å forandre kartet kan du klikke på den grønne knappen med svart kryss for å zoome inn, på den grønne knappen med strek for å zoome ut, eller på de grønne pilene for å se tilstøtende kart.


METAR-TAF: